Glandorf, OH (45848)

4:02 PM EDT on May 25, 2015 (GMT -0400)
Glandorf | | Change Station
CLOSE
Current Station
Personal Weather Station
Location: Ottawa, OH
Elevation: 722 ft
Nearby Weather Stations

Elev 722 ft 41.03 °N, 84.08 °W | Updated 8 minutes ago

Mostly Cloudy
Mostly Cloudy
80.8 °F
Feels Like 83 °F
N
14.5
Wind Variable Wind from West

Today
High -- | Low -- °F
--% Chance of Precip.
Yesterday
High -- | Low -- °F
Precip. -- in
6:10 AM 8:56 PM
Waxing Crescent, 51% visible
Pressure 30.02 in
Visibility 10.0 miles
Clouds Scattered Clouds 3500 ft
Mostly Cloudy 12000 ft
Heat Index 83 °F
Dew Point 65 °F
Humidity 59%
Rainfall 0.00 in
Snow Depth Not available.
UV 5 out of 12
Pollen 10.10 out of 12
Air Quality Not available.
Flu Activity Local Activity
METAR KFDY 251953Z AUTO 22022G32KT 10SM SCT035 BKN120 26/17 A3004 RMK AO2 PK WND 21032/1903 SLP164 T02610172

More Conditions Fewer Conditions

Pressure 30.02 in
Visibility 10.0 miles
Clouds Scattered Clouds 3500 ft
Mostly Cloudy 12000 ft
Heat Index 83 °F
Dew Point 65 °F
Humidity 59%
Rainfall 0.00 in
Snow Depth Not available.
UV 5 out of 12
Pollen 10.10 out of 12
Air Quality Not available.
Flu Activity Local Activity
METAR KFDY 251953Z AUTO 22022G32KT 10SM SCT035 BKN120 26/17 A3004 RMK AO2 PK WND 21032/1903 SLP164 T02610172

More Conditions Fewer Conditions

10-Day Weather Forecast

Almanac

Astronomy

May. 25, 2015 Rise Set
Actual Time
Civil Twilight
Nautical Twilight
Astronomical Twilight
Moon
Length of Visible Light
Length of Day
Tomorrow will be .
, % of the Moon is Illuminated

Today's Extremes

State Highs State Lows

Community

WunderPhotos

Upload Photos

1,824,115 photos uploaded!

WunderBlogs® & News

Nearby

Air Quality

  Air Quality AQ Index Pollutant
Not available.

Snow Depth

Station Depth Elevation

Earthquake Activity

City Distance Mag. Time & Date
Minimum magnitude displayed is 2.5.

Coastal Water Temperatures

Place Temperature

Stations

Nearby Weather Stations

Station Location Temp. Windchill Dew Point Humidity Wind Precip. Elev Updated Type